Time;durP1;ratioP1;P1;durP2;ratioP2;P2;SDS_P1;SDS_P2;PMS_P1;PMS_P2;Temp;Humidity;BMP_temperature;BMP_pressure;BME280_temperature;BME280_humidity;BME280_pressure;Samples;Min_cycle;Max_cycle;Signal;HPM_P1;HPM_P2
2021/07/30 00:00:11;;;;;;;9.13;5.03;;;14.40;99.90;;;;;;5084941;28;20270;-64
2021/07/30 00:02:39;;;;;;;7.97;5.00;;;14.30;99.90;;;;;;5067438;28;20215;-64
2021/07/30 00:05:10;;;;;;;6.57;5.07;;;14.20;99.90;;;;;;5080126;28;20206;-64
2021/07/30 00:07:40;;;;;;;10.27;5.23;;;14.20;99.90;;;;;;5086187;28;20192;-64
2021/07/30 00:10:09;;;;;;;9.60;4.70;;;14.20;99.90;;;;;;5085664;28;20205;-63
2021/07/30 00:12:37;;;;;;;7.70;5.00;;;14.10;99.90;;;;;;5086071;28;20282;-64
2021/07/30 00:15:06;;;;;;;10.37;5.47;;;14.10;99.90;;;;;;5075775;28;20252;-64
2021/07/30 00:17:35;;;;;;;11.53;5.43;;;14.00;99.90;;;;;;5087715;28;20192;-64
2021/07/30 00:20:04;;;;;;;10.73;5.77;;;14.00;99.90;;;;;;5077106;28;20214;-64
2021/07/30 00:22:35;;;;;;;9.50;5.40;;;14.00;99.90;;;;;;5045129;28;20664;-64
2021/07/30 00:25:09;;;;;;;9.60;5.17;;;14.00;99.90;;;;;;5042743;28;20306;-64
2021/07/30 00:27:37;;;;;;;16.00;5.33;;;14.00;99.90;;;;;;5043975;28;20200;-64
2021/07/30 00:30:07;;;;;;;10.37;5.10;;;13.90;99.90;;;;;;5043152;28;20722;-64
2021/07/30 00:32:35;;;;;;;7.73;5.07;;;13.80;99.90;;;;;;5045223;28;20333;-64
2021/07/30 00:35:04;;;;;;;10.53;5.43;;;13.80;99.90;;;;;;5043339;28;20754;-64
2021/07/30 00:37:33;;;;;;;9.70;5.37;;;13.80;99.90;;;;;;5043276;28;20698;-64
2021/07/30 00:40:01;;;;;;;9.33;5.70;;;13.70;99.90;;;;;;5039338;28;20626;-64
2021/07/30 00:42:31;;;;;;;10.07;5.40;;;13.70;99.90;;;;;;5045047;28;20193;-64
2021/07/30 00:45:01;;;;;;;12.90;5.63;;;13.70;99.90;;;;;;5043037;28;20192;-64
2021/07/30 00:47:31;;;;;;;9.83;5.50;;;13.60;99.90;;;;;;5041718;28;20652;-64
2021/07/30 00:50:00;;;;;;;9.93;5.40;;;13.60;99.90;;;;;;5043483;28;20197;-64
2021/07/30 00:52:29;;;;;;;10.30;5.60;;;13.60;99.90;;;;;;5027573;28;20205;-64
2021/07/30 00:54:58;;;;;;;11.17;5.20;;;13.60;99.90;;;;;;5043826;28;20210;-64
2021/07/30 00:57:26;;;;;;;8.30;4.93;;;13.60;99.90;;;;;;5044474;28;20602;-64
2021/07/30 00:59:56;;;;;;;13.00;5.60;;;13.60;99.90;;;;;;5042616;28;20220;-64
2021/07/30 01:02:24;;;;;;;9.57;5.40;;;13.50;99.90;;;;;;5058262;28;20189;-63
2021/07/30 01:04:53;;;;;;;10.43;5.93;;;13.60;99.90;;;;;;5041806;28;20683;-64
2021/07/30 01:07:21;;;;;;;6.23;5.23;;;13.60;99.90;;;;;;5043631;28;20192;-64
2021/07/30 01:09:50;;;;;;;10.40;5.63;;;13.60;99.90;;;;;;5040225;28;20220;-64
2021/07/30 01:12:18;;;;;;;12.10;5.60;;;13.60;99.90;;;;;;5040172;28;20704;-64
2021/07/30 01:14:47;;;;;;;7.97;5.40;;;13.60;99.90;;;;;;5036335;28;20205;-63
2021/07/30 01:17:16;;;;;;;12.93;6.00;;;13.60;99.90;;;;;;5034703;28;20311;-64
2021/07/30 01:19:45;;;;;;;14.10;6.33;;;13.60;99.90;;;;;;5039039;28;20189;-64
2021/07/30 01:22:22;;;;;;;10.73;6.60;;;13.60;99.90;;;;;;5043062;28;20288;-64
2021/07/30 01:24:52;;;;;;;10.50;6.87;;;13.70;99.90;;;;;;5044772;28;20656;-64
2021/07/30 01:27:20;;;;;;;14.03;8.17;;;13.70;99.90;;;;;;5043467;28;20255;-64
2021/07/30 01:29:49;;;;;;;14.40;8.40;;;13.70;99.90;;;;;;5044039;28;20188;-64
2021/07/30 01:32:19;;;;;;;20.97;9.33;;;13.80;99.90;;;;;;5042178;28;20279;-64
2021/07/30 01:34:48;;;;;;;12.20;8.03;;;13.80;99.90;;;;;;5043042;28;20296;-64
2021/07/30 01:37:16;;;;;;;16.10;8.50;;;13.80;99.90;;;;;;5038333;28;20201;-64
2021/07/30 01:39:45;;;;;;;12.30;7.60;;;13.90;99.90;;;;;;5044949;28;20224;-64
2021/07/30 01:42:14;;;;;;;15.50;7.50;;;13.90;99.90;;;;;;5041886;28;20196;-63
2021/07/30 01:44:42;;;;;;;11.30;6.73;;;14.00;99.90;;;;;;5044762;28;20231;-63
2021/07/30 01:47:11;;;;;;;12.37;7.30;;;14.00;99.90;;;;;;5037806;28;20203;-64
2021/07/30 01:49:39;;;;;;;10.17;6.20;;;13.90;99.90;;;;;;5044430;28;20458;-63
2021/07/30 01:52:07;;;;;;;10.90;6.07;;;13.90;99.90;;;;;;5042767;28;20300;-64
2021/07/30 01:54:35;;;;;;;13.80;6.83;;;13.90;99.90;;;;;;5044441;28;20288;-63
2021/07/30 01:57:04;;;;;;;15.27;6.60;;;13.90;99.90;;;;;;5037333;28;20554;-64
2021/07/30 01:59:34;;;;;;;12.07;6.27;;;13.90;99.90;;;;;;5029844;28;20284;-64
2021/07/30 02:02:03;;;;;;;9.30;6.47;;;13.90;99.90;;;;;;5025220;28;20177;-64
2021/07/30 02:04:31;;;;;;;11.93;6.67;;;13.90;99.90;;;;;;5027430;28;20254;-64
2021/07/30 02:07:00;;;;;;;11.13;6.93;;;13.90;99.90;;;;;;5023552;28;20189;-64
2021/07/30 02:09:29;;;;;;;13.23;6.50;;;13.90;99.90;;;;;;5031441;28;20652;-64
2021/07/30 02:11:58;;;;;;;10.97;5.67;;;13.90;99.90;;;;;;5025406;28;20301;-63
2021/07/30 02:14:25;;;;;;;12.87;6.53;;;14.00;99.90;;;;;;5024514;28;20296;-64
2021/07/30 02:16:58;;;;;;;10.40;5.90;;;14.00;99.90;;;;;;5027795;28;20193;-64
2021/07/30 02:19:26;;;;;;;12.20;5.83;;;13.90;99.90;;;;;;5023778;28;20727;-64
2021/07/30 02:21:55;;;;;;;14.67;6.07;;;13.90;99.90;;;;;;5045631;28;20219;-64
2021/07/30 02:24:24;;;;;;;15.63;6.93;;;14.00;99.90;;;;;;5052728;28;20234;-64
2021/07/30 02:26:53;;;;;;;10.63;6.10;;;14.00;99.90;;;;;;5049322;28;20282;-63
2021/07/30 02:29:22;;;;;;;10.93;6.17;;;13.90;99.90;;;;;;5046977;28;20196;-64
2021/07/30 02:31:50;;;;;;;11.83;6.10;;;13.90;99.90;;;;;;5046904;28;20224;-63
2021/07/30 02:34:20;;;;;;;12.90;6.10;;;13.90;99.90;;;;;;5047565;28;20644;-64
2021/07/30 02:36:48;;;;;;;10.97;5.90;;;13.90;99.90;;;;;;5048564;28;20276;-64
2021/07/30 02:39:16;;;;;;;11.80;5.80;;;13.90;99.90;;;;;;5047094;28;20324;-63
2021/07/30 02:41:45;;;;;;;11.77;6.00;;;13.90;99.90;;;;;;5044477;28;20302;-64
2021/07/30 02:44:13;;;;;;;10.97;5.73;;;13.90;99.90;;;;;;5049526;28;20227;-64
2021/07/30 02:46:41;;;;;;;10.60;6.00;;;13.90;99.90;;;;;;5050189;28;20283;-64
2021/07/30 02:49:09;;;;;;;11.10;6.07;;;13.90;99.90;;;;;;5040874;28;20550;-64
2021/07/30 02:51:39;;;;;;;14.00;6.27;;;13.90;99.90;;;;;;5059963;28;20301;-64
2021/07/30 02:54:07;;;;;;;10.13;6.00;;;13.90;99.90;;;;;;5049092;28;20220;-64
2021/07/30 02:56:35;;;;;;;17.60;6.40;;;14.00;99.90;;;;;;5052730;28;21340;-64
2021/07/30 02:59:03;;;;;;;8.07;5.90;;;14.00;99.90;;;;;;5046730;28;20283;-63
2021/07/30 03:01:32;;;;;;;15.33;6.27;;;14.00;99.90;;;;;;5047364;28;20227;-64
2021/07/30 03:04:00;;;;;;;9.17;5.93;;;14.00;99.90;;;;;;5043159;28;20322;-64
2021/07/30 03:06:28;;;;;;;13.03;6.20;;;14.00;99.90;;;;;;5052938;28;20283;-64
2021/07/30 03:08:58;;;;;;;14.37;5.83;;;14.10;99.90;;;;;;5044155;28;20188;-64
2021/07/30 03:11:26;;;;;;;14.47;6.20;;;14.10;99.90;;;;;;5050379;28;20216;-64
2021/07/30 03:13:55;;;;;;;17.47;6.30;;;14.10;99.90;;;;;;5044522;28;20350;-63
2021/07/30 03:16:23;;;;;;;15.33;6.40;;;14.10;99.90;;;;;;5046905;28;20193;-64
2021/07/30 03:18:51;;;;;;;12.50;6.20;;;14.10;99.90;;;;;;5046645;28;20224;-63
2021/07/30 03:21:19;;;;;;;12.23;6.40;;;14.10;99.90;;;;;;5043165;28;20315;-64
2021/07/30 03:23:48;;;;;;;12.73;6.30;;;14.10;99.90;;;;;;5043870;28;20217;-63
2021/07/30 03:26:17;;;;;;;12.00;6.33;;;14.00;99.90;;;;;;5041227;28;20224;-64
2021/07/30 03:28:48;;;;;;;15.43;6.83;;;14.00;99.90;;;;;;5040134;28;20221;-64
2021/07/30 03:31:16;;;;;;;13.23;6.97;;;13.90;99.90;;;;;;5045379;28;20263;-64
2021/07/30 03:33:44;;;;;;;9.87;6.97;;;13.90;99.90;;;;;;5050803;28;20278;-63
2021/07/30 03:36:13;;;;;;;14.77;7.03;;;13.80;99.90;;;;;;5042572;28;20197;-64
2021/07/30 03:38:41;;;;;;;17.40;7.30;;;13.90;99.90;;;;;;5045074;28;20292;-63
2021/07/30 03:41:09;;;;;;;16.63;7.27;;;13.90;99.90;;;;;;5046630;28;20238;-64
2021/07/30 03:43:39;;;;;;;11.00;6.50;;;13.90;99.90;;;;;;5052473;28;20187;-64
2021/07/30 03:46:07;;;;;;;14.23;6.40;;;13.90;99.90;;;;;;5048262;28;20823;-64
2021/07/30 03:48:36;;;;;;;10.80;6.70;;;13.90;99.90;;;;;;5054113;28;20231;-64
2021/07/30 03:51:05;;;;;;;11.03;6.83;;;13.90;99.90;;;;;;5051189;28;20232;-64
2021/07/30 03:53:33;;;;;;;12.77;6.80;;;13.90;99.90;;;;;;5042173;28;20697;-64
2021/07/30 03:56:01;;;;;;;12.77;6.77;;;13.90;99.90;;;;;;5054496;28;20225;-64
2021/07/30 03:58:29;;;;;;;17.37;7.17;;;13.90;99.90;;;;;;5052237;28;20224;-63
2021/07/30 04:00:59;;;;;;;12.03;6.47;;;14.00;99.90;;;;;;5049564;28;20565;-63
2021/07/30 04:03:27;;;;;;;17.07;7.00;;;14.00;99.90;;;;;;5050125;28;20231;-64
2021/07/30 04:05:55;;;;;;;14.53;6.60;;;14.00;99.90;;;;;;5050770;28;20228;-64
2021/07/30 04:08:24;;;;;;;13.93;6.73;;;14.00;99.90;;;;;;5052023;28;20645;-64
2021/07/30 04:10:52;;;;;;;11.20;7.00;;;14.00;99.90;;;;;;5058364;28;20200;-64
2021/07/30 04:13:21;;;;;;;14.77;7.03;;;13.90;99.90;;;;;;5034577;28;20271;-64
2021/07/30 04:15:49;;;;;;;12.30;6.80;;;13.90;99.90;;;;;;5051739;28;20613;-63
2021/07/30 04:18:19;;;;;;;13.43;7.00;;;13.90;99.90;;;;;;5048559;28;20196;-64
2021/07/30 04:20:48;;;;;;;14.37;6.63;;;13.80;99.90;;;;;;5041374;28;20315;-64
2021/07/30 04:23:16;;;;;;;11.83;7.27;;;13.90;99.90;;;;;;5047716;28;20189;-64
2021/07/30 04:25:44;;;;;;;8.30;6.53;;;13.90;99.90;;;;;;5049542;28;20275;-64
2021/07/30 04:28:13;;;;;;;13.13;6.77;;;13.90;99.90;;;;;;5054696;28;20283;-64
2021/07/30 04:30:41;;;;;;;15.57;7.43;;;13.90;99.90;;;;;;5053954;28;20219;-64
2021/07/30 04:33:10;;;;;;;8.27;5.97;;;14.00;99.90;;;;;;5053008;28;20215;-63
2021/07/30 04:35:39;;;;;;;20.60;7.70;;;14.00;99.90;;;;;;5047132;28;20725;-64
2021/07/30 04:38:08;;;;;;;14.83;6.83;;;14.00;99.90;;;;;;5047287;28;20682;-64
2021/07/30 04:40:38;;;;;;;10.00;7.27;;;13.90;99.90;;;;;;5047319;28;20200;-64
2021/07/30 04:43:06;;;;;;;12.17;7.03;;;14.00;99.90;;;;;;5048256;28;20279;-64
2021/07/30 04:45:35;;;;;;;13.13;6.63;;;13.90;99.90;;;;;;5045548;28;20228;-64
2021/07/30 04:48:04;;;;;;;10.93;6.63;;;13.90;99.90;;;;;;5050090;28;20259;-64
2021/07/30 04:50:33;;;;;;;9.93;6.57;;;14.00;99.90;;;;;;5050345;28;20296;-63
2021/07/30 04:53:02;;;;;;;11.23;7.00;;;14.00;99.90;;;;;;5048809;28;20295;-64
2021/07/30 04:55:31;;;;;;;13.53;7.70;;;14.00;99.90;;;;;;5048802;28;20208;-63
2021/07/30 04:57:59;;;;;;;13.53;7.43;;;14.00;99.90;;;;;;5051062;28;20279;-63
2021/07/30 05:00:27;;;;;;;17.53;7.30;;;14.10;99.90;;;;;;5054115;28;20201;-64
2021/07/30 05:02:56;;;;;;;13.23;7.60;;;14.10;99.90;;;;;;5055264;28;20184;-64
2021/07/30 05:05:24;;;;;;;14.67;6.80;;;14.20;99.90;;;;;;5043814;28;20197;-63
2021/07/30 05:07:52;;;;;;;11.07;6.80;;;14.30;99.90;;;;;;5047297;28;20251;-64
2021/07/30 05:10:22;;;;;;;11.07;7.13;;;14.40;99.90;;;;;;5051785;28;20212;-64
2021/07/30 05:12:50;;;;;;;11.13;7.17;;;14.40;99.90;;;;;;5040464;28;20211;-64
2021/07/30 05:15:18;;;;;;;14.07;6.90;;;14.60;99.90;;;;;;5047002;28;20271;-64
2021/07/30 05:17:47;;;;;;;12.10;6.63;;;14.70;99.90;;;;;;5049228;28;20192;-63
2021/07/30 05:20:15;;;;;;;16.93;7.33;;;14.90;99.90;;;;;;5048679;28;20707;-64
2021/07/30 05:22:43;;;;;;;10.97;6.07;;;15.00;99.90;;;;;;5048560;28;20288;-64
2021/07/30 05:25:13;;;;;;;11.13;6.53;;;15.00;99.90;;;;;;5048551;28;20650;-64
2021/07/30 05:27:42;;;;;;;8.50;6.17;;;15.20;99.90;;;;;;5046526;28;20270;-64
2021/07/30 05:30:13;;;;;;;11.80;6.20;;;15.30;99.90;;;;;;5046691;28;20240;-64
2021/07/30 05:32:41;;;;;;;13.17;5.40;;;15.30;99.90;;;;;;5049807;28;20188;-63
2021/07/30 05:35:10;;;;;;;8.57;5.63;;;15.30;99.90;;;;;;5049067;28;20296;-64
2021/07/30 05:37:38;;;;;;;9.67;5.93;;;15.40;99.90;;;;;;5051963;28;20279;-64
2021/07/30 05:40:09;;;;;;;8.67;5.73;;;15.50;99.90;;;;;;5047211;28;20196;-64
2021/07/30 05:42:37;;;;;;;8.73;5.63;;;15.50;99.90;;;;;;5052193;28;21003;-63
2021/07/30 05:45:08;;;;;;;9.47;5.77;;;15.40;99.90;;;;;;5048124;28;20224;-64
2021/07/30 05:47:36;;;;;;;9.70;5.57;;;15.30;99.90;;;;;;5049555;28;20216;-64
2021/07/30 05:50:05;;;;;;;9.83;5.30;;;15.30;99.90;;;;;;5046154;28;20216;-64
2021/07/30 05:52:34;;;;;;;8.33;5.33;;;15.30;99.90;;;;;;5052359;28;20608;-64
2021/07/30 05:55:03;;;;;;;10.40;5.90;;;15.30;99.90;;;;;;5045762;28;20208;-64
2021/07/30 05:57:34;;;;;;;7.20;5.27;;;15.40;99.90;;;;;;5053677;28;20208;-64
2021/07/30 06:00:03;;;;;;;8.87;5.67;;;15.50;99.90;;;;;;5048499;28;20214;-64
2021/07/30 06:02:32;;;;;;;6.30;5.40;;;15.70;99.90;;;;;;5060528;28;20604;-64
2021/07/30 06:05:02;;;;;;;7.10;5.10;;;15.90;99.90;;;;;;5045625;28;20192;-64
2021/07/30 06:07:30;;;;;;;11.07;5.30;;;16.20;99.90;;;;;;5045711;28;20737;-64
2021/07/30 06:09:59;;;;;;;11.30;4.97;;;16.40;99.90;;;;;;5046648;28;20197;-64
2021/07/30 06:12:27;;;;;;;8.47;5.20;;;16.60;99.90;;;;;;5034815;28;20251;-64
2021/07/30 06:14:56;;;;;;;16.97;4.87;;;16.50;99.90;;;;;;5046077;28;20300;-64
2021/07/30 06:17:24;;;;;;;7.20;5.10;;;16.60;99.90;;;;;;5040081;28;20197;-64
2021/07/30 06:19:54;;;;;;;7.37;4.73;;;16.70;99.90;;;;;;5042900;28;20193;-64
2021/07/30 06:22:27;;;;;;;7.07;5.00;;;16.70;99.90;;;;;;5039205;28;20184;-64
2021/07/30 06:24:55;;;;;;;4.50;4.20;;;16.70;99.90;;;;;;5048893;28;20279;-64
2021/07/30 06:27:24;;;;;;;8.90;4.87;;;16.80;99.90;;;;;;5038734;28;20292;-64
2021/07/30 06:29:52;;;;;;;5.03;4.53;;;16.80;99.90;;;;;;5044687;28;20291;-64
2021/07/30 06:32:20;;;;;;;5.50;4.67;;;16.80;99.90;;;;;;5048197;28;20193;-64
2021/07/30 06:34:49;;;;;;;8.03;4.60;;;16.90;99.90;;;;;;5044682;28;20292;-64
2021/07/30 06:37:18;;;;;;;9.10;4.60;;;16.90;99.90;;;;;;5047007;28;20228;-64
2021/07/30 06:39:46;;;;;;;5.73;4.50;;;17.00;99.90;;;;;;5047718;28;20632;-64
2021/07/30 06:42:15;;;;;;;7.50;4.40;;;17.20;99.90;;;;;;5044075;28;20678;-64
2021/07/30 06:44:47;;;;;;;4.90;3.90;;;17.30;99.90;;;;;;5049101;28;20221;-64
2021/07/30 06:47:15;;;;;;;4.13;3.83;;;17.40;99.90;;;;;;5041837;28;20248;-64
2021/07/30 06:49:44;;;;;;;6.13;4.03;;;17.60;99.90;;;;;;5037432;28;20224;-64
2021/07/30 06:52:12;;;;;;;4.33;3.90;;;17.90;99.90;;;;;;5051333;28;20657;-64
2021/07/30 06:54:42;;;;;;;7.03;4.00;;;18.20;99.90;;;;;;5046708;28;20691;-64
2021/07/30 06:57:12;;;;;;;4.00;3.70;;;18.30;99.90;;;;;;5046984;28;20600;-64
2021/07/30 06:59:41;;;;;;;7.53;4.13;;;18.40;99.90;;;;;;5052205;28;20690;-64
2021/07/30 07:02:09;;;;;;;6.20;3.60;;;18.60;99.90;;;;;;5055429;28;20287;-64
2021/07/30 07:04:38;;;;;;;3.83;3.37;;;18.70;99.90;;;;;;5050884;28;21411;-64
2021/07/30 07:07:06;;;;;;;3.60;3.40;;;18.90;99.90;;;;;;5054039;28;20685;-64
2021/07/30 07:09:34;;;;;;;3.80;3.40;;;19.00;99.90;;;;;;5052315;28;20193;-64
2021/07/30 07:12:05;;;;;;;3.57;3.27;;;19.10;99.90;;;;;;5046044;28;20283;-65
2021/07/30 07:14:33;;;;;;;3.97;3.50;;;19.20;99.90;;;;;;5050742;28;20300;-64
2021/07/30 07:17:02;;;;;;;4.63;3.50;;;19.40;99.90;;;;;;5061388;28;20193;-64
2021/07/30 07:19:30;;;;;;;7.23;3.33;;;19.50;99.90;;;;;;5056113;28;20195;-64
2021/07/30 07:22:00;;;;;;;3.30;3.10;;;19.70;99.90;;;;;;5053106;28;20252;-64
2021/07/30 07:24:29;;;;;;;5.30;3.47;;;19.70;99.90;;;;;;5053050;28;20200;-64
2021/07/30 07:26:57;;;;;;;4.57;3.07;;;19.80;99.90;;;;;;5046855;28;20203;-64
2021/07/30 07:29:27;;;;;;;7.63;3.40;;;19.80;99.90;;;;;;5049389;28;20228;-64
2021/07/30 07:31:56;;;;;;;6.43;3.20;;;19.70;99.90;;;;;;5053223;28;20220;-65
2021/07/30 07:34:24;;;;;;;5.87;3.10;;;20.00;99.90;;;;;;5055339;28;20615;-65
2021/07/30 07:36:52;;;;;;;7.83;3.20;;;20.40;99.90;;;;;;5031107;28;20263;-64
2021/07/30 07:39:21;;;;;;;3.00;2.80;;;20.60;99.90;;;;;;5052853;28;20316;-65
2021/07/30 07:41:49;;;;;;;3.63;2.60;;;20.80;99.90;;;;;;5052458;28;20201;-65
2021/07/30 07:44:17;;;;;;;7.10;3.20;;;21.00;99.90;;;;;;5059871;28;20224;-64
2021/07/30 07:46:47;;;;;;;3.77;2.90;;;21.10;99.90;;;;;;5052331;28;20635;-64
2021/07/30 07:49:18;;;;;;;4.27;3.23;;;21.40;99.90;;;;;;5057414;28;20192;-64
2021/07/30 07:51:49;;;;;;;3.03;2.73;;;21.20;99.90;;;;;;5057495;28;20204;-65
2021/07/30 07:54:37;;;;;;;3.30;3.00;;;20.80;99.90;;;;;;5054759;28;20302;-64
2021/07/30 07:57:06;;;;;;;3.30;3.00;;;20.70;99.90;;;;;;5054742;28;20225;-64
2021/07/30 07:59:35;;;;;;;3.80;3.00;;;20.60;99.90;;;;;;5041172;28;20247;-65
2021/07/30 08:02:06;;;;;;;3.47;3.17;;;20.40;99.90;;;;;;5064881;28;20319;-64
2021/07/30 08:04:35;;;;;;;3.87;3.23;;;20.50;99.90;;;;;;5051689;28;20675;-64
2021/07/30 08:07:07;;;;;;;4.13;3.30;;;20.70;99.90;;;;;;5056019;28;20283;-64
2021/07/30 08:09:35;;;;;;;5.37;3.20;;;20.60;99.90;;;;;;5046375;28;20291;-64
2021/07/30 08:12:04;;;;;;;3.20;2.90;;;20.80;99.90;;;;;;5038376;28;20288;-65
2021/07/30 08:14:33;;;;;;;3.90;3.13;;;21.10;99.90;;;;;;5047325;28;20249;-64
2021/07/30 08:17:04;;;;;;;3.30;3.00;;;21.30;99.90;;;;;;5051724;28;20666;-65
2021/07/30 08:19:34;;;;;;;3.57;2.97;;;21.40;99.90;;;;;;5056799;28;20192;-65
2021/07/30 08:22:04;;;;;;;6.60;2.80;;;22.00;99.90;;;;;;5047399;28;20224;-65
2021/07/30 08:24:33;;;;;;;4.00;3.20;;;22.60;99.90;;;;;;5048130;28;20264;-65
2021/07/30 08:27:05;;;;;;;3.00;2.80;;;22.60;99.90;;;;;;5052621;28;20198;-64
2021/07/30 08:29:34;;;;;;;3.07;2.87;;;22.70;99.90;;;;;;5050933;28;20310;-64
2021/07/30 08:32:04;;;;;;;4.23;3.07;;;22.60;99.90;;;;;;5050079;28;20210;-65
2021/07/30 08:34:32;;;;;;;2.87;2.50;;;22.40;99.90;;;;;;5055528;28;20272;-64
2021/07/30 08:37:00;;;;;;;4.17;2.83;;;22.40;99.90;;;;;;5053145;28;20279;-65
2021/07/30 08:39:29;;;;;;;4.60;2.67;;;22.30;99.90;;;;;;5042805;28;20406;-65
2021/07/30 08:42:00;;;;;;;2.87;2.67;;;22.50;99.90;;;;;;5052655;28;20222;-65
2021/07/30 08:44:29;;;;;;;6.53;2.97;;;22.60;99.90;;;;;;5053381;28;20223;-65
2021/07/30 08:46:58;;;;;;;2.80;2.57;;;22.90;99.90;;;;;;5053611;28;20345;-66
2021/07/30 08:49:33;;;;;;;4.13;2.63;;;23.30;99.90;;;;;;5051107;28;20339;-65
2021/07/30 08:52:10;;;;;;;5.30;2.67;;;23.20;99.90;;;;;;5050586;28;20247;-65
2021/07/30 08:54:39;;;;;;;3.47;2.70;;;23.30;99.90;;;;;;5050740;28;20689;-65
2021/07/30 08:57:08;;;;;;;3.53;2.57;;;23.90;99.90;;;;;;5049029;28;20286;-65
2021/07/30 08:59:39;;;;;;;5.13;2.93;;;24.40;99.90;;;;;;5052144;28;21395;-65
2021/07/30 09:02:07;;;;;;;2.87;2.67;;;24.60;99.90;;;;;;5059416;28;20261;-65
2021/07/30 09:04:38;;;;;;;5.10;2.60;;;24.70;99.90;;;;;;5053861;28;20655;-65
2021/07/30 09:07:07;;;;;;;2.97;2.63;;;24.90;99.90;;;;;;5056464;28;20193;-65
2021/07/30 09:09:36;;;;;;;3.60;2.60;;;24.30;99.90;;;;;;5053454;28;20290;-64
2021/07/30 09:12:07;;;;;;;3.10;2.90;;;23.70;99.90;;;;;;5053162;28;20405;-66
2021/07/30 09:14:37;;;;;;;7.23;3.00;;;23.30;99.90;;;;;;5060963;28;20505;-66
2021/07/30 09:17:06;;;;;;;3.20;2.90;;;22.90;99.90;;;;;;5056999;28;20215;-64
2021/07/30 09:19:35;;;;;;;4.10;2.90;;;22.30;99.90;;;;;;5054007;28;20196;-65
2021/07/30 09:22:10;;;;;;;4.30;2.93;;;22.00;99.90;;;;;;5054103;28;20283;-64
2021/07/30 09:24:40;;;;;;;3.50;3.20;;;21.80;99.90;;;;;;5056136;28;20191;-65
2021/07/30 09:27:09;;;;;;;2.70;2.43;;;21.80;99.90;;;;;;5047839;28;20239;-64
2021/07/30 09:29:39;;;;;;;3.67;2.73;;;21.90;99.90;;;;;;5054302;28;20623;-65
2021/07/30 09:32:09;;;;;;;3.50;3.13;;;21.90;99.90;;;;;;5054467;28;20184;-65
2021/07/30 09:34:39;;;;;;;3.07;2.73;;;22.10;99.90;;;;;;5053561;28;20683;-65
2021/07/30 09:37:10;;;;;;;3.37;3.10;;;22.20;99.90;;;;;;5042188;28;20309;-65
2021/07/30 09:39:43;;;;;;;4.90;3.13;;;22.30;99.90;;;;;;5059669;28;20215;-65
2021/07/30 09:42:16;;;;;;;7.87;3.10;;;22.50;99.90;;;;;;5052479;28;20195;-65
2021/07/30 09:44:52;;;;;;;5.87;3.37;;;22.60;99.90;;;;;;5054897;28;20192;-65
2021/07/30 09:47:24;;;;;;;3.63;3.30;;;22.90;99.90;;;;;;5057229;28;20200;-65
2021/07/30 09:49:55;;;;;;;3.10;2.80;;;23.10;99.90;;;;;;5048677;28;20223;-65
2021/07/30 09:52:26;;;;;;;4.73;3.13;;;23.20;99.90;;;;;;5039962;28;20197;-64
2021/07/30 09:54:56;;;;;;;8.83;3.10;;;22.80;99.90;;;;;;5054843;28;20227;-64
2021/07/30 09:57:25;;;;;;;6.17;3.07;;;22.70;99.90;;;;;;5052885;28;20299;-65
2021/07/30 09:59:58;;;;;;;4.93;3.20;;;22.50;99.90;;;;;;5055229;28;20223;-66
2021/07/30 10:02:27;;;;;;;3.73;3.10;;;22.40;99.90;;;;;;5053320;28;20265;-65
2021/07/30 10:04:57;;;;;;;3.37;3.17;;;22.30;99.90;;;;;;5058540;28;20762;-64
2021/07/30 10:07:28;;;;;;;4.50;3.30;;;22.10;99.90;;;;;;5052180;28;20370;-65
2021/07/30 10:10:08;;;;;;;3.30;3.00;;;21.90;99.90;;;;;;5028409;28;20216;-65
2021/07/30 10:12:39;;;;;;;3.57;2.93;;;21.80;99.90;;;;;;5046076;28;20244;-65
2021/07/30 10:15:09;;;;;;;4.40;2.93;;;21.80;99.90;;;;;;5049186;28;20616;-65
2021/07/30 10:17:39;;;;;;;5.60;2.97;;;21.70;99.90;;;;;;5058462;28;20625;-65
2021/07/30 10:20:09;;;;;;;6.97;3.17;;;21.80;99.90;;;;;;5046105;28;20279;-65
2021/07/30 10:22:49;;;;;;;3.57;3.27;;;22.00;99.90;;;;;;5052485;28;20223;-65
2021/07/30 10:25:22;;;;;;;6.83;2.80;;;22.30;99.90;;;;;;5054228;28;20199;-65
2021/07/30 10:27:53;;;;;;;3.60;3.30;;;22.50;99.90;;;;;;5054534;28;20197;-65
2021/07/30 10:30:22;;;;;;;3.10;2.80;;;22.80;99.90;;;;;;5051834;28;20243;-65
2021/07/30 10:32:56;;;;;;;2.90;2.70;;;22.90;99.90;;;;;;5047040;28;20647;-65
2021/07/30 10:35:45;;;;;;;2.83;2.60;;;22.70;99.90;;;;;;5046292;28;20258;-65
2021/07/30 10:38:21;;;;;;;3.03;2.93;;;22.70;99.90;;;;;;5049616;28;20231;-65
2021/07/30 10:41:19;;;;;;;2.93;2.80;;;23.00;99.90;;;;;;5045286;28;20199;-65
2021/07/30 10:44:10;;;;;;;3.53;3.30;;;22.80;99.90;;;;;;5041749;28;20209;-65
2021/07/30 10:46:38;;;;;;;2.77;2.67;;;22.60;99.90;;;;;;5058894;28;20185;-64
2021/07/30 10:49:39;;;;;;;5.40;3.03;;;22.50;99.90;;;;;;5043788;28;20280;-65
2021/07/30 10:52:30;;;;;;;4.10;2.97;;;22.40;99.90;;;;;;5052045;28;20191;-65
2021/07/30 10:55:00;;;;;;;2.83;2.70;;;22.40;99.90;;;;;;5066451;28;20191;-65
2021/07/30 10:57:51;;;;;;;2.97;2.80;;;22.30;99.90;;;;;;5051560;28;20217;-65
2021/07/30 11:00:19;;;;;;;6.50;2.87;;;22.10;99.90;;;;;;5052233;28;20196;-65
2021/07/30 11:03:01;;;;;;;3.43;3.03;;;22.00;99.90;;;;;;5049891;28;20196;-65
2021/07/30 11:05:30;;;;;;;4.27;3.03;;;21.90;99.90;;;;;;5047166;28;20188;-65
2021/07/30 11:08:03;;;;;;;4.97;3.03;;;21.90;99.90;;;;;;5049536;28;20263;-65
2021/07/30 11:10:32;;;;;;;4.20;3.30;;;21.80;99.90;;;;;;5057816;28;20220;-64
2021/07/30 11:13:05;;;;;;;3.90;3.40;;;21.70;99.90;;;;;;5052862;28;20242;-64
2021/07/30 11:15:34;;;;;;;3.00;2.80;;;21.50;99.90;;;;;;5048883;28;20198;-65
2021/07/30 11:18:03;;;;;;;4.63;3.03;;;21.50;99.90;;;;;;5048182;28;20590;-64
2021/07/30 11:20:35;;;;;;;3.87;3.03;;;21.50;99.90;;;;;;5054866;28;20319;-64
2021/07/30 11:23:05;;;;;;;4.30;3.53;;;21.30;99.90;;;;;;5049685;28;20291;-64
2021/07/30 11:25:35;;;;;;;3.70;3.40;;;20.80;99.90;;;;;;5059829;28;20203;-64
2021/07/30 11:28:06;;;;;;;4.17;3.70;;;20.60;99.90;;;;;;5057701;28;20598;-64
2021/07/30 11:30:34;;;;;;;3.97;3.63;;;20.30;99.90;;;;;;5058174;28;20235;-64
2021/07/30 11:33:03;;;;;;;4.00;3.80;;;20.20;99.90;;;;;;5056669;28;20220;-64
2021/07/30 11:35:40;;;;;;;3.90;3.60;;;20.10;99.90;;;;;;5062931;28;20615;-65
2021/07/30 11:38:09;;;;;;;4.10;3.90;;;20.00;99.90;;;;;;5051589;28;20192;-65
2021/07/30 11:40:39;;;;;;;5.07;3.83;;;19.90;99.90;;;;;;5053017;28;20280;-65
2021/07/30 11:43:09;;;;;;;5.03;4.37;;;19.80;99.90;;;;;;5049832;28;20192;-65
2021/07/30 11:45:38;;;;;;;4.57;4.27;;;19.80;99.90;;;;;;5053288;28;20188;-65
2021/07/30 11:48:14;;;;;;;4.63;4.03;;;20.00;99.90;;;;;;5053377;28;20177;-65
2021/07/30 11:50:42;;;;;;;4.80;4.40;;;20.20;99.90;;;;;;5053154;28;20216;-65
2021/07/30 11:53:10;;;;;;;7.23;4.30;;;20.30;99.90;;;;;;5053616;28;20219;-65
2021/07/30 11:55:43;;;;;;;4.23;3.53;;;20.50;99.90;;;;;;5054569;28;20253;-65
2021/07/30 11:58:12;;;;;;;4.87;4.43;;;20.50;99.90;;;;;;5047746;28;20694;-65
2021/07/30 12:00:40;;;;;;;4.47;4.00;;;20.50;99.90;;;;;;5056252;28;20192;-64
2021/07/30 12:03:21;;;;;;;5.27;3.60;;;20.70;99.90;;;;;;5048431;28;20924;-65
2021/07/30 12:05:51;;;;;;;5.23;4.40;;;20.80;99.90;;;;;;5052155;28;20223;-65
2021/07/30 12:08:21;;;;;;;6.27;4.23;;;21.00;99.90;;;;;;5058297;28;20325;-65
2021/07/30 12:10:52;;;;;;;4.47;4.17;;;20.70;99.90;;;;;;5052244;28;20496;-64
2021/07/30 12:13:23;;;;;;;4.97;4.57;;;20.70;99.90;;;;;;5049012;28;20192;-65
2021/07/30 12:15:52;;;;;;;5.03;4.50;;;20.60;99.90;;;;;;5056630;28;20299;-65
2021/07/30 12:18:20;;;;;;;9.47;6.10;;;20.40;99.90;;;;;;5058560;28;20223;-65
2021/07/30 12:20:49;;;;;;;5.90;4.50;;;20.30;99.90;;;;;;5050523;28;20563;-65
2021/07/30 12:23:18;;;;;;;8.33;4.53;;;20.30;99.90;;;;;;5050449;28;20291;-64
2021/07/30 12:25:48;;;;;;;6.40;4.73;;;20.50;99.90;;;;;;5051513;28;20202;-65
2021/07/30 12:28:23;;;;;;;6.03;4.70;;;20.70;99.90;;;;;;5050476;28;20185;-65
2021/07/30 12:30:53;;;;;;;4.97;4.50;;;20.80;99.90;;;;;;5065440;28;20192;-65
2021/07/30 12:33:27;;;;;;;5.00;4.50;;;21.00;99.90;;;;;;5057553;28;20197;-65
2021/07/30 12:36:07;;;;;;;3.77;3.60;;;21.20;99.90;;;;;;5053441;28;20227;-65
2021/07/30 12:38:51;;;;;;;4.10;3.77;;;21.20;99.90;;;;;;5047373;28;20262;-65
2021/07/30 12:41:21;;;;;;;3.63;3.40;;;21.40;99.90;;;;;;5051527;28;20247;-65
2021/07/30 12:43:51;;;;;;;3.47;3.27;;;21.60;99.90;;;;;;5054436;28;20201;-66
2021/07/30 12:46:33;;;;;;;3.73;3.00;;;21.80;99.90;;;;;;5050350;28;20264;-65
2021/07/30 12:49:01;;;;;;;4.27;3.43;;;21.70;99.90;;;;;;5052103;28;20275;-65
2021/07/30 12:51:30;;;;;;;3.20;3.00;;;21.70;99.90;;;;;;5048314;28;20228;-64
2021/07/30 12:54:03;;;;;;;5.50;3.07;;;21.80;99.90;;;;;;5049534;28;20211;-65
2021/07/30 12:56:57;;;;;;;3.00;2.80;;;21.90;99.90;;;;;;5046610;28;20234;-64